createdAt,value
2023-04-19T00:05:39.262Z,80.73
2023-04-19T00:15:43.298Z,81.87
2023-04-19T00:25:47.094Z,84.68
2023-04-19T00:35:51.077Z,85.14
2023-04-19T00:45:53.955Z,86.09
2023-04-19T00:56:01.017Z,86.90
2023-04-19T01:06:03.894Z,86.66
2023-04-19T01:16:08.791Z,86.06
2023-04-19T01:26:12.855Z,86.04
2023-04-19T01:36:15.547Z,85.07
2023-04-19T01:46:19.670Z,84.37
2023-04-19T01:56:22.817Z,83.82
2023-04-19T02:06:27.683Z,82.91
2023-04-19T02:16:30.401Z,82.75
2023-04-19T02:26:34.454Z,82.38
2023-04-19T02:36:37.113Z,81.93
2023-04-19T02:46:41.171Z,81.91
2023-04-19T02:56:43.849Z,81.43
2023-04-19T03:06:47.869Z,81.63
2023-04-19T03:16:50.676Z,81.40
2023-04-19T03:26:54.734Z,81.04
2023-04-19T03:36:57.553Z,80.88
2023-04-19T03:47:01.584Z,80.77
2023-04-19T03:57:04.352Z,80.06
2023-04-19T04:07:08.392Z,79.45
2023-04-19T04:17:11.156Z,79.80
2023-04-19T04:27:20.088Z,80.98
2023-04-19T04:37:22.785Z,81.45
2023-04-19T04:47:31.636Z,80.56
2023-04-19T04:57:34.444Z,79.85
2023-04-19T05:07:38.458Z,79.38
2023-04-19T05:17:42.919Z,79.22
2023-04-19T05:27:46.972Z,79.22
2023-04-19T05:37:49.639Z,78.30
2023-04-19T05:47:53.744Z,77.53
2023-04-19T05:57:56.764Z,76.39
2023-04-19T06:08:02.736Z,76.02
2023-04-19T06:18:10.045Z,74.82
2023-04-19T06:28:14.123Z,73.67
2023-04-19T06:38:16.842Z,71.41
2023-04-19T06:48:20.832Z,68.68
2023-04-19T06:58:23.535Z,68.35
2023-04-19T07:08:38.576Z,65.78
2023-04-19T07:18:50.936Z,65.59
2023-04-19T07:28:55.757Z,61.57
2023-04-19T07:38:58.784Z,61.63
2023-04-19T07:49:02.904Z,60.37
2023-04-19T07:59:08.848Z,58.43
2023-04-19T08:09:13.794Z,56.72
2023-04-19T08:19:16.450Z,55.26
2023-04-19T08:29:20.464Z,53.48
2023-04-19T08:39:32.521Z,51.83
2023-04-19T08:49:42.653Z,51.31
2023-04-19T08:59:49.132Z,50.92
2023-04-19T09:10:07.413Z,46.93
2023-04-19T09:20:10.658Z,46.05
2023-04-19T09:30:24.103Z,45.44
2023-04-19T09:40:33.238Z,43.41
2023-04-19T09:50:46.626Z,43.38
2023-04-19T10:01:10.744Z,41.78
2023-04-19T10:11:18.747Z,43.19
2023-04-19T10:21:22.296Z,42.19
2023-04-19T10:31:28.027Z,41.97
2023-04-19T10:41:58.475Z,45.55
2023-04-19T10:52:02.493Z,45.71
2023-04-19T11:02:06.736Z,43.98
2023-04-19T11:12:13.750Z,43.74
2023-04-19T11:22:16.459Z,39.81
2023-04-19T11:32:22.388Z,25.17
2023-04-19T11:42:25.118Z,20.02
2023-04-19T11:52:29.164Z,15.49
2023-04-19T12:02:32.063Z,14.50
2023-04-19T12:12:36.389Z,14.81
2023-04-19T12:22:39.049Z,12.90
2023-04-19T12:32:43.105Z,14.73
2023-04-19T12:42:45.836Z,14.83
2023-04-19T12:52:51.862Z,14.77
2023-04-19T13:02:55.122Z,16.05
2023-04-19T13:13:00.645Z,16.43
2023-04-19T13:23:03.377Z,18.41
2023-04-19T13:33:08.925Z,18.56
2023-04-19T13:43:11.810Z,20.94
2023-04-19T13:53:15.869Z,23.26
2023-04-19T14:03:18.927Z,22.31
2023-04-19T14:13:23.089Z,23.48
2023-04-19T14:23:25.727Z,21.81
2023-04-19T14:33:29.762Z,21.74
2023-04-19T14:43:32.965Z,21.60
2023-04-19T14:53:37.074Z,20.25
2023-04-19T15:03:40.137Z,21.94
2023-04-19T15:13:44.392Z,21.45
2023-04-19T15:23:47.092Z,22.77
2023-04-19T15:33:51.121Z,24.41
2023-04-19T15:43:53.964Z,24.42
2023-04-19T15:53:58.003Z,23.85
2023-04-19T16:04:00.876Z,25.51
2023-04-19T16:14:05.069Z,26.68
2023-04-19T16:24:08.366Z,27.79
2023-04-19T16:34:12.388Z,28.76
2023-04-19T16:44:15.046Z,26.51
2023-04-19T16:54:19.061Z,25.91
2023-04-19T17:04:21.786Z,27.33
2023-04-19T17:14:26.036Z,27.35
2023-04-19T17:24:28.740Z,27.83
2023-04-19T17:34:34.653Z,28.60
2023-04-19T17:44:38.811Z,29.42
2023-04-19T17:54:42.855Z,30.48
2023-04-19T18:04:45.605Z,29.06
2023-04-19T18:14:49.657Z,29.82
2023-04-19T18:24:53.384Z,30.83
2023-04-19T18:34:57.466Z,31.55
2023-04-19T18:45:00.396Z,32.64
2023-04-19T18:55:04.779Z,33.30
2023-04-19T19:05:08.532Z,34.49
2023-04-19T19:15:14.434Z,35.48
2023-04-19T19:25:17.326Z,37.01
2023-04-19T19:35:21.426Z,37.87
2023-04-19T19:45:24.232Z,38.95
2023-04-19T19:55:28.506Z,40.82
2023-04-19T20:05:31.375Z,42.73
2023-04-19T20:15:36.629Z,44.20
2023-04-19T20:25:39.545Z,45.32
2023-04-19T20:35:43.962Z,46.21
2023-04-19T20:45:47.178Z,47.79
2023-04-19T20:55:52.014Z,48.83
2023-04-19T21:05:54.655Z,50.14
2023-04-19T21:15:58.794Z,51.85
2023-04-19T21:26:04.192Z,52.41
2023-04-19T21:36:09.033Z,53.38
2023-04-19T21:46:11.779Z,54.07
2023-04-19T21:56:15.766Z,54.36
2023-04-19T22:06:19.214Z,56.13
2023-04-19T22:16:23.421Z,57.05
2023-04-19T22:26:26.792Z,59.13
2023-04-19T22:36:30.829Z,60.99
2023-04-19T22:46:33.799Z,64.23
2023-04-19T22:56:37.863Z,66.79
2023-04-19T23:06:40.789Z,67.52
2023-04-19T23:16:45.606Z,66.51
2023-04-19T23:26:48.261Z,66.78
2023-04-19T23:36:52.322Z,67.96
2023-04-19T23:46:55.125Z,67.65
2023-04-19T23:56:59.493Z,68.13
